sensor_id;sensor_type;location;lat;lon;timestamp;P1;durP1;ratioP1;P2;durP2;ratioP2
67902;SDS011;54708;43.612;1.568;2023-08-06T00:00:46;7.38;;;3.20;;
67902;SDS011;54708;43.612;1.568;2023-08-06T00:03:11;5.07;;;3.15;;
67902;SDS011;54708;43.612;1.568;2023-08-06T00:05:36;5.45;;;2.83;;
67902;SDS011;54708;43.612;1.568;2023-08-06T00:08:02;4.70;;;2.85;;
67902;SDS011;54708;43.612;1.568;2023-08-06T00:10:27;4.32;;;2.90;;
67902;SDS011;54708;43.612;1.568;2023-08-06T00:12:53;8.38;;;4.25;;
67902;SDS011;54708;43.612;1.568;2023-08-06T00:15:18;10.07;;;3.30;;
67902;SDS011;54708;43.612;1.568;2023-08-06T00:17:44;6.78;;;3.35;;
67902;SDS011;54708;43.612;1.568;2023-08-06T00:20:09;5.18;;;3.15;;
67902;SDS011;54708;43.612;1.568;2023-08-06T00:22:35;7.03;;;3.35;;
67902;SDS011;54708;43.612;1.568;2023-08-06T00:25:02;5.05;;;3.17;;
67902;SDS011;54708;43.612;1.568;2023-08-06T00:27:28;4.63;;;3.00;;
67902;SDS011;54708;43.612;1.568;2023-08-06T00:29:54;9.45;;;3.30;;
67902;SDS011;54708;43.612;1.568;2023-08-06T00:32:19;9.10;;;3.58;;
67902;SDS011;54708;43.612;1.568;2023-08-06T00:34:45;9.52;;;3.30;;
67902;SDS011;54708;43.612;1.568;2023-08-06T00:37:10;8.50;;;3.78;;
67902;SDS011;54708;43.612;1.568;2023-08-06T00:39:36;5.80;;;3.17;;
67902;SDS011;54708;43.612;1.568;2023-08-06T00:42:01;8.95;;;3.63;;
67902;SDS011;54708;43.612;1.568;2023-08-06T00:44:27;6.30;;;3.95;;
67902;SDS011;54708;43.612;1.568;2023-08-06T00:46:52;8.60;;;3.38;;
67902;SDS011;54708;43.612;1.568;2023-08-06T00:49:18;6.72;;;3.47;;
67902;SDS011;54708;43.612;1.568;2023-08-06T00:51:43;7.72;;;3.55;;
67902;SDS011;54708;43.612;1.568;2023-08-06T00:54:09;5.57;;;3.63;;
67902;SDS011;54708;43.612;1.568;2023-08-06T00:56:35;16.25;;;3.67;;
67902;SDS011;54708;43.612;1.568;2023-08-06T00:59:04;12.98;;;3.35;;
67902;SDS011;54708;43.612;1.568;2023-08-06T01:01:30;5.97;;;3.05;;
67902;SDS011;54708;43.612;1.568;2023-08-06T01:03:56;6.82;;;3.22;;
67902;SDS011;54708;43.612;1.568;2023-08-06T01:06:23;8.82;;;3.45;;
67902;SDS011;54708;43.612;1.568;2023-08-06T01:09:10;10.60;;;3.85;;
67902;SDS011;54708;43.612;1.568;2023-08-06T01:12:00;6.80;;;2.70;;
67902;SDS011;54708;43.612;1.568;2023-08-06T01:14:50;11.52;;;3.38;;
67902;SDS011;54708;43.612;1.568;2023-08-06T01:17:20;7.30;;;2.95;;
67902;SDS011;54708;43.612;1.568;2023-08-06T01:19:46;7.82;;;3.08;;
67902;SDS011;54708;43.612;1.568;2023-08-06T01:22:11;10.57;;;3.72;;
67902;SDS011;54708;43.612;1.568;2023-08-06T01:24:37;11.27;;;3.22;;
67902;SDS011;54708;43.612;1.568;2023-08-06T01:27:06;11.82;;;3.75;;
67902;SDS011;54708;43.612;1.568;2023-08-06T01:29:53;10.82;;;3.65;;
67902;SDS011;54708;43.612;1.568;2023-08-06T01:32:49;10.50;;;3.13;;
67902;SDS011;54708;43.612;1.568;2023-08-06T01:35:16;12.88;;;3.75;;
67902;SDS011;54708;43.612;1.568;2023-08-06T01:37:42;11.50;;;3.28;;
67902;SDS011;54708;43.612;1.568;2023-08-06T01:40:11;18.73;;;3.60;;
67902;SDS011;54708;43.612;1.568;2023-08-06T01:42:38;9.50;;;2.88;;
67902;SDS011;54708;43.612;1.568;2023-08-06T01:45:04;8.52;;;3.03;;
67902;SDS011;54708;43.612;1.568;2023-08-06T01:47:30;12.05;;;3.05;;
67902;SDS011;54708;43.612;1.568;2023-08-06T01:49:55;9.68;;;3.20;;
67902;SDS011;54708;43.612;1.568;2023-08-06T01:52:21;19.30;;;4.53;;
67902;SDS011;54708;43.612;1.568;2023-08-06T01:54:46;11.95;;;3.38;;
67902;SDS011;54708;43.612;1.568;2023-08-06T01:57:12;14.75;;;4.05;;
67902;SDS011;54708;43.612;1.568;2023-08-06T01:59:37;13.48;;;3.60;;
67902;SDS011;54708;43.612;1.568;2023-08-06T02:02:03;9.88;;;2.22;;
67902;SDS011;54708;43.612;1.568;2023-08-06T02:04:28;7.85;;;3.25;;
67902;SDS011;54708;43.612;1.568;2023-08-06T02:06:53;8.82;;;3.63;;
67902;SDS011;54708;43.612;1.568;2023-08-06T02:09:19;14.40;;;3.15;;
67902;SDS011;54708;43.612;1.568;2023-08-06T02:11:44;29.48;;;5.38;;
67902;SDS011;54708;43.612;1.568;2023-08-06T02:14:10;12.10;;;3.78;;
67902;SDS011;54708;43.612;1.568;2023-08-06T02:16:35;8.80;;;2.95;;
67902;SDS011;54708;43.612;1.568;2023-08-06T02:19:01;32.65;;;5.60;;
67902;SDS011;54708;43.612;1.568;2023-08-06T02:21:26;11.35;;;3.28;;
67902;SDS011;54708;43.612;1.568;2023-08-06T02:23:51;9.80;;;2.63;;
67902;SDS011;54708;43.612;1.568;2023-08-06T02:26:17;19.48;;;3.33;;
67902;SDS011;54708;43.612;1.568;2023-08-06T02:28:42;18.83;;;4.15;;
67902;SDS011;54708;43.612;1.568;2023-08-06T02:31:07;10.55;;;3.63;;
67902;SDS011;54708;43.612;1.568;2023-08-06T02:33:33;11.75;;;2.42;;
67902;SDS011;54708;43.612;1.568;2023-08-06T02:35:59;12.15;;;2.95;;
67902;SDS011;54708;43.612;1.568;2023-08-06T02:38:28;19.92;;;4.07;;
67902;SDS011;54708;43.612;1.568;2023-08-06T02:40:54;10.75;;;3.20;;
67902;SDS011;54708;43.612;1.568;2023-08-06T02:43:19;12.40;;;2.95;;
67902;SDS011;54708;43.612;1.568;2023-08-06T02:45:45;15.98;;;3.15;;
67902;SDS011;54708;43.612;1.568;2023-08-06T02:48:10;13.02;;;3.20;;
67902;SDS011;54708;43.612;1.568;2023-08-06T02:50:39;18.58;;;2.80;;
67902;SDS011;54708;43.612;1.568;2023-08-06T02:53:05;9.90;;;3.13;;
67902;SDS011;54708;43.612;1.568;2023-08-06T02:55:34;15.00;;;4.20;;
67902;SDS011;54708;43.612;1.568;2023-08-06T02:58:00;11.25;;;3.28;;
67902;SDS011;54708;43.612;1.568;2023-08-06T03:00:26;15.52;;;3.88;;
67902;SDS011;54708;43.612;1.568;2023-08-06T03:02:51;14.48;;;2.67;;
67902;SDS011;54708;43.612;1.568;2023-08-06T03:05:16;9.40;;;2.53;;
67902;SDS011;54708;43.612;1.568;2023-08-06T03:07:42;10.68;;;2.63;;
67902;SDS011;54708;43.612;1.568;2023-08-06T03:10:07;15.18;;;3.05;;
67902;SDS011;54708;43.612;1.568;2023-08-06T03:12:33;17.35;;;4.03;;
67902;SDS011;54708;43.612;1.568;2023-08-06T03:14:58;15.82;;;3.15;;
67902;SDS011;54708;43.612;1.568;2023-08-06T03:17:24;16.95;;;3.05;;
67902;SDS011;54708;43.612;1.568;2023-08-06T03:19:49;10.85;;;3.08;;
67902;SDS011;54708;43.612;1.568;2023-08-06T03:22:14;16.92;;;4.43;;
67902;SDS011;54708;43.612;1.568;2023-08-06T03:24:40;11.82;;;3.67;;
67902;SDS011;54708;43.612;1.568;2023-08-06T03:27:05;9.48;;;2.67;;
67902;SDS011;54708;43.612;1.568;2023-08-06T03:29:30;14.02;;;3.00;;
67902;SDS011;54708;43.612;1.568;2023-08-06T03:31:56;9.15;;;3.42;;
67902;SDS011;54708;43.612;1.568;2023-08-06T03:34:21;16.10;;;3.33;;
67902;SDS011;54708;43.612;1.568;2023-08-06T03:36:47;12.38;;;3.13;;
67902;SDS011;54708;43.612;1.568;2023-08-06T03:39:12;15.57;;;4.28;;
67902;SDS011;54708;43.612;1.568;2023-08-06T03:41:38;12.63;;;3.17;;
67902;SDS011;54708;43.612;1.568;2023-08-06T03:44:04;7.28;;;3.70;;
67902;SDS011;54708;43.612;1.568;2023-08-06T03:46:30;13.27;;;3.78;;
67902;SDS011;54708;43.612;1.568;2023-08-06T03:48:58;12.32;;;2.85;;
67902;SDS011;54708;43.612;1.568;2023-08-06T03:51:24;12.65;;;3.03;;
67902;SDS011;54708;43.612;1.568;2023-08-06T03:53:50;11.60;;;3.08;;
67902;SDS011;54708;43.612;1.568;2023-08-06T03:56:15;9.13;;;2.95;;
67902;SDS011;54708;43.612;1.568;2023-08-06T03:58:40;11.00;;;3.28;;
67902;SDS011;54708;43.612;1.568;2023-08-06T04:01:06;9.45;;;3.65;;
67902;SDS011;54708;43.612;1.568;2023-08-06T04:03:31;13.88;;;3.42;;
67902;SDS011;54708;43.612;1.568;2023-08-06T04:05:56;11.95;;;2.50;;
67902;SDS011;54708;43.612;1.568;2023-08-06T04:08:22;13.35;;;3.22;;
67902;SDS011;54708;43.612;1.568;2023-08-06T04:10:53;8.70;;;3.28;;
67902;SDS011;54708;43.612;1.568;2023-08-06T04:13:19;16.90;;;3.78;;
67902;SDS011;54708;43.612;1.568;2023-08-06T04:15:45;13.90;;;2.90;;
67902;SDS011;54708;43.612;1.568;2023-08-06T04:18:10;19.92;;;2.83;;
67902;SDS011;54708;43.612;1.568;2023-08-06T04:20:43;18.00;;;3.33;;
67902;SDS011;54708;43.612;1.568;2023-08-06T04:23:09;16.52;;;4.00;;
67902;SDS011;54708;43.612;1.568;2023-08-06T04:25:35;18.38;;;4.43;;
67902;SDS011;54708;43.612;1.568;2023-08-06T04:28:00;19.15;;;4.35;;
67902;SDS011;54708;43.612;1.568;2023-08-06T04:30:25;9.25;;;3.47;;
67902;SDS011;54708;43.612;1.568;2023-08-06T04:32:51;12.82;;;3.20;;
67902;SDS011;54708;43.612;1.568;2023-08-06T04:35:16;21.88;;;5.15;;
67902;SDS011;54708;43.612;1.568;2023-08-06T04:37:42;14.70;;;3.45;;
67902;SDS011;54708;43.612;1.568;2023-08-06T04:40:07;9.93;;;2.72;;
67902;SDS011;54708;43.612;1.568;2023-08-06T04:42:33;14.60;;;3.15;;
67902;SDS011;54708;43.612;1.568;2023-08-06T04:45:01;13.82;;;3.47;;
67902;SDS011;54708;43.612;1.568;2023-08-06T04:47:26;21.15;;;4.05;;
67902;SDS011;54708;43.612;1.568;2023-08-06T04:49:52;14.55;;;3.47;;
67902;SDS011;54708;43.612;1.568;2023-08-06T04:52:18;10.48;;;4.13;;
67902;SDS011;54708;43.612;1.568;2023-08-06T04:54:43;12.13;;;3.63;;
67902;SDS011;54708;43.612;1.568;2023-08-06T04:57:09;12.15;;;2.75;;
67902;SDS011;54708;43.612;1.568;2023-08-06T04:59:34;13.05;;;2.85;;
67902;SDS011;54708;43.612;1.568;2023-08-06T05:01:59;16.80;;;5.13;;
67902;SDS011;54708;43.612;1.568;2023-08-06T05:04:25;16.75;;;3.70;;
67902;SDS011;54708;43.612;1.568;2023-08-06T05:06:50;14.35;;;3.40;;
67902;SDS011;54708;43.612;1.568;2023-08-06T05:09:15;14.43;;;3.45;;
67902;SDS011;54708;43.612;1.568;2023-08-06T05:11:41;14.98;;;5.10;;
67902;SDS011;54708;43.612;1.568;2023-08-06T05:14:06;17.98;;;3.35;;
67902;SDS011;54708;43.612;1.568;2023-08-06T05:16:31;16.55;;;3.25;;
67902;SDS011;54708;43.612;1.568;2023-08-06T05:18:57;13.45;;;4.82;;
67902;SDS011;54708;43.612;1.568;2023-08-06T05:21:22;17.00;;;3.85;;
67902;SDS011;54708;43.612;1.568;2023-08-06T05:23:48;14.30;;;3.00;;
67902;SDS011;54708;43.612;1.568;2023-08-06T05:26:13;11.75;;;2.95;;
67902;SDS011;54708;43.612;1.568;2023-08-06T05:28:43;9.95;;;2.92;;
67902;SDS011;54708;43.612;1.568;2023-08-06T05:31:08;14.77;;;3.08;;
67902;SDS011;54708;43.612;1.568;2023-08-06T05:33:34;8.30;;;2.70;;
67902;SDS011;54708;43.612;1.568;2023-08-06T05:35:59;6.90;;;2.55;;
67902;SDS011;54708;43.612;1.568;2023-08-06T05:38:24;14.95;;;2.72;;
67902;SDS011;54708;43.612;1.568;2023-08-06T05:40:50;13.18;;;3.80;;
67902;SDS011;54708;43.612;1.568;2023-08-06T05:43:15;14.65;;;3.38;;
67902;SDS011;54708;43.612;1.568;2023-08-06T05:45:44;15.52;;;2.80;;
67902;SDS011;54708;43.612;1.568;2023-08-06T05:48:11;18.27;;;3.33;;
67902;SDS011;54708;43.612;1.568;2023-08-06T05:50:36;14.40;;;3.60;;
67902;SDS011;54708;43.612;1.568;2023-08-06T05:53:02;6.85;;;2.25;;
67902;SDS011;54708;43.612;1.568;2023-08-06T05:55:27;13.52;;;3.20;;
67902;SDS011;54708;43.612;1.568;2023-08-06T05:57:53;9.90;;;2.15;;
67902;SDS011;54708;43.612;1.568;2023-08-06T06:00:18;8.55;;;3.03;;
67902;SDS011;54708;43.612;1.568;2023-08-06T06:02:44;15.52;;;3.45;;
67902;SDS011;54708;43.612;1.568;2023-08-06T06:05:09;12.45;;;2.65;;
67902;SDS011;54708;43.612;1.568;2023-08-06T06:07:34;12.48;;;4.30;;
67902;SDS011;54708;43.612;1.568;2023-08-06T06:10:00;7.60;;;2.63;;
67902;SDS011;54708;43.612;1.568;2023-08-06T06:12:25;15.15;;;4.13;;
67902;SDS011;54708;43.612;1.568;2023-08-06T06:14:51;11.05;;;3.35;;
67902;SDS011;54708;43.612;1.568;2023-08-06T06:17:16;10.95;;;2.83;;
67902;SDS011;54708;43.612;1.568;2023-08-06T06:19:42;19.15;;;3.72;;
67902;SDS011;54708;43.612;1.568;2023-08-06T06:22:07;8.00;;;2.22;;
67902;SDS011;54708;43.612;1.568;2023-08-06T06:24:33;12.60;;;2.85;;
67902;SDS011;54708;43.612;1.568;2023-08-06T06:26:58;13.43;;;2.72;;
67902;SDS011;54708;43.612;1.568;2023-08-06T06:29:23;8.85;;;2.53;;
67902;SDS011;54708;43.612;1.568;2023-08-06T06:31:49;13.43;;;3.00;;
67902;SDS011;54708;43.612;1.568;2023-08-06T06:34:14;9.60;;;2.67;;
67902;SDS011;54708;43.612;1.568;2023-08-06T06:36:40;12.15;;;3.08;;
67902;SDS011;54708;43.612;1.568;2023-08-06T06:39:05;8.25;;;2.40;;
67902;SDS011;54708;43.612;1.568;2023-08-06T06:41:30;9.15;;;2.25;;
67902;SDS011;54708;43.612;1.568;2023-08-06T06:43:58;11.57;;;4.07;;
67902;SDS011;54708;43.612;1.568;2023-08-06T06:46:23;13.52;;;4.07;;
67902;SDS011;54708;43.612;1.568;2023-08-06T06:48:48;14.45;;;4.13;;
67902;SDS011;54708;43.612;1.568;2023-08-06T06:51:14;20.05;;;3.95;;
67902;SDS011;54708;43.612;1.568;2023-08-06T06:53:39;10.60;;;2.70;;
67902;SDS011;54708;43.612;1.568;2023-08-06T06:56:05;19.33;;;4.25;;
67902;SDS011;54708;43.612;1.568;2023-08-06T06:58:31;10.23;;;2.53;;
67902;SDS011;54708;43.612;1.568;2023-08-06T07:00:56;18.73;;;3.15;;
67902;SDS011;54708;43.612;1.568;2023-08-06T07:03:22;13.20;;;3.28;;
67902;SDS011;54708;43.612;1.568;2023-08-06T07:05:47;15.18;;;3.35;;
67902;SDS011;54708;43.612;1.568;2023-08-06T07:08:15;11.88;;;2.88;;
67902;SDS011;54708;43.612;1.568;2023-08-06T07:10:40;9.05;;;2.65;;
67902;SDS011;54708;43.612;1.568;2023-08-06T07:13:06;13.23;;;2.50;;
67902;SDS011;54708;43.612;1.568;2023-08-06T07:15:32;9.88;;;2.70;;
67902;SDS011;54708;43.612;1.568;2023-08-06T07:17:58;12.70;;;2.35;;
67902;SDS011;54708;43.612;1.568;2023-08-06T07:20:23;10.23;;;3.30;;
67902;SDS011;54708;43.612;1.568;2023-08-06T07:22:48;9.27;;;2.03;;
67902;SDS011;54708;43.612;1.568;2023-08-06T07:25:15;11.10;;;4.43;;
67902;SDS011;54708;43.612;1.568;2023-08-06T07:27:41;9.93;;;2.78;;
67902;SDS011;54708;43.612;1.568;2023-08-06T07:30:06;10.25;;;2.80;;
67902;SDS011;54708;43.612;1.568;2023-08-06T07:32:32;11.82;;;2.40;;
67902;SDS011;54708;43.612;1.568;2023-08-06T07:34:57;18.70;;;4.30;;
67902;SDS011;54708;43.612;1.568;2023-08-06T07:37:25;9.80;;;3.10;;
67902;SDS011;54708;43.612;1.568;2023-08-06T07:39:53;8.38;;;1.95;;
67902;SDS011;54708;43.612;1.568;2023-08-06T07:42:21;9.48;;;3.05;;
67902;SDS011;54708;43.612;1.568;2023-08-06T07:45:05;10.23;;;2.67;;
67902;SDS011;54708;43.612;1.568;2023-08-06T07:47:32;10.48;;;2.15;;
67902;SDS011;54708;43.612;1.568;2023-08-06T07:49:57;5.05;;;1.65;;
67902;SDS011;54708;43.612;1.568;2023-08-06T07:52:22;9.65;;;2.60;;
67902;SDS011;54708;43.612;1.568;2023-08-06T07:54:48;10.48;;;2.13;;
67902;SDS011;54708;43.612;1.568;2023-08-06T07:57:13;11.98;;;2.90;;
67902;SDS011;54708;43.612;1.568;2023-08-06T07:59:39;9.77;;;2.25;;
67902;SDS011;54708;43.612;1.568;2023-08-06T08:02:05;13.43;;;3.53;;
67902;SDS011;54708;43.612;1.568;2023-08-06T08:04:30;10.77;;;2.35;;
67902;SDS011;54708;43.612;1.568;2023-08-06T08:06:56;10.07;;;2.95;;
67902;SDS011;54708;43.612;1.568;2023-08-06T08:09:21;15.27;;;2.92;;
67902;SDS011;54708;43.612;1.568;2023-08-06T08:11:47;14.80;;;2.53;;
67902;SDS011;54708;43.612;1.568;2023-08-06T08:14:12;8.23;;;2.33;;
67902;SDS011;54708;43.612;1.568;2023-08-06T08:16:38;7.10;;;2.13;;
67902;SDS011;54708;43.612;1.568;2023-08-06T08:19:03;13.00;;;2.20;;
67902;SDS011;54708;43.612;1.568;2023-08-06T08:21:29;6.38;;;1.92;;
67902;SDS011;54708;43.612;1.568;2023-08-06T08:23:54;6.10;;;1.95;;
67902;SDS011;54708;43.612;1.568;2023-08-06T08:26:20;7.65;;;2.15;;
67902;SDS011;54708;43.612;1.568;2023-08-06T08:28:45;6.47;;;2.22;;
67902;SDS011;54708;43.612;1.568;2023-08-06T08:31:11;8.27;;;2.45;;
67902;SDS011;54708;43.612;1.568;2023-08-06T08:33:39;9.95;;;3.20;;
67902;SDS011;54708;43.612;1.568;2023-08-06T08:36:05;15.27;;;2.88;;
67902;SDS011;54708;43.612;1.568;2023-08-06T08:38:30;9.05;;;1.75;;
67902;SDS011;54708;43.612;1.568;2023-08-06T08:40:56;10.45;;;2.60;;
67902;SDS011;54708;43.612;1.568;2023-08-06T08:43:21;10.32;;;2.30;;
67902;SDS011;54708;43.612;1.568;2023-08-06T08:45:49;14.63;;;3.83;;
67902;SDS011;54708;43.612;1.568;2023-08-06T08:48:15;15.68;;;2.38;;
67902;SDS011;54708;43.612;1.568;2023-08-06T08:50:42;8.18;;;3.30;;
67902;SDS011;54708;43.612;1.568;2023-08-06T08:53:15;11.48;;;2.67;;
67902;SDS011;54708;43.612;1.568;2023-08-06T08:55:42;9.02;;;2.42;;
67902;SDS011;54708;43.612;1.568;2023-08-06T08:58:09;7.78;;;2.25;;
67902;SDS011;54708;43.612;1.568;2023-08-06T09:00:35;10.60;;;2.45;;
67902;SDS011;54708;43.612;1.568;2023-08-06T09:03:00;8.10;;;1.60;;
67902;SDS011;54708;43.612;1.568;2023-08-06T09:05:28;13.32;;;2.10;;
67902;SDS011;54708;43.612;1.568;2023-08-06T09:07:55;3.45;;;1.60;;
67902;SDS011;54708;43.612;1.568;2023-08-06T09:10:25;6.68;;;1.70;;
67902;SDS011;54708;43.612;1.568;2023-08-06T09:12:51;7.72;;;1.90;;
67902;SDS011;54708;43.612;1.568;2023-08-06T09:15:16;9.32;;;3.05;;
67902;SDS011;54708;43.612;1.568;2023-08-06T09:17:41;9.20;;;3.83;;
67902;SDS011;54708;43.612;1.568;2023-08-06T09:20:11;8.40;;;1.90;;
67902;SDS011;54708;43.612;1.568;2023-08-06T09:22:37;10.70;;;2.85;;
67902;SDS011;54708;43.612;1.568;2023-08-06T09:25:02;15.27;;;3.13;;
67902;SDS011;54708;43.612;1.568;2023-08-06T09:27:29;7.13;;;2.30;;
67902;SDS011;54708;43.612;1.568;2023-08-06T09:29:54;7.57;;;1.90;;
67902;SDS011;54708;43.612;1.568;2023-08-06T09:32:20;5.90;;;1.83;;
67902;SDS011;54708;43.612;1.568;2023-08-06T09:34:45;9.13;;;1.90;;
67902;SDS011;54708;43.612;1.568;2023-08-06T09:37:11;6.43;;;2.13;;
67902;SDS011;54708;43.612;1.568;2023-08-06T09:39:38;10.18;;;2.00;;
67902;SDS011;54708;43.612;1.568;2023-08-06T09:42:05;7.15;;;2.25;;
67902;SDS011;54708;43.612;1.568;2023-08-06T09:44:31;4.57;;;1.83;;
67902;SDS011;54708;43.612;1.568;2023-08-06T09:46:58;8.20;;;1.90;;
67902;SDS011;54708;43.612;1.568;2023-08-06T09:49:29;10.52;;;2.03;;
67902;SDS011;54708;43.612;1.568;2023-08-06T09:52:10;6.28;;;2.60;;
67902;SDS011;54708;43.612;1.568;2023-08-06T09:54:40;9.77;;;2.17;;
67902;SDS011;54708;43.612;1.568;2023-08-06T09:57:08;9.40;;;3.47;;
67902;SDS011;54708;43.612;1.568;2023-08-06T09:59:33;8.07;;;2.30;;
67902;SDS011;54708;43.612;1.568;2023-08-06T10:01:59;6.25;;;2.03;;
67902;SDS011;54708;43.612;1.568;2023-08-06T10:04:25;9.20;;;2.17;;
67902;SDS011;54708;43.612;1.568;2023-08-06T10:06:51;9.65;;;3.28;;
67902;SDS011;54708;43.612;1.568;2023-08-06T10:09:17;10.80;;;2.40;;
67902;SDS011;54708;43.612;1.568;2023-08-06T10:11:44;9.00;;;2.10;;
67902;SDS011;54708;43.612;1.568;2023-08-06T10:14:24;9.45;;;2.42;;
67902;SDS011;54708;43.612;1.568;2023-08-06T10:16:52;6.50;;;1.63;;
67902;SDS011;54708;43.612;1.568;2023-08-06T10:19:17;7.10;;;2.00;;
67902;SDS011;54708;43.612;1.568;2023-08-06T10:24:49;7.30;;;1.83;;
67902;SDS011;54708;43.612;1.568;2023-08-06T10:27:30;4.85;;;1.58;;
67902;SDS011;54708;43.612;1.568;2023-08-06T10:32:52;6.03;;;1.90;;
67902;SDS011;54708;43.612;1.568;2023-08-06T10:35:28;14.20;;;2.40;;
67902;SDS011;54708;43.612;1.568;2023-08-06T10:38:16;4.82;;;1.92;;
67902;SDS011;54708;43.612;1.568;2023-08-06T10:40:50;7.82;;;3.90;;
67902;SDS011;54708;43.612;1.568;2023-08-06T10:43:26;4.38;;;1.85;;
67902;SDS011;54708;43.612;1.568;2023-08-06T10:45:58;6.07;;;1.73;;
67902;SDS011;54708;43.612;1.568;2023-08-06T10:48:44;6.22;;;1.50;;
67902;SDS011;54708;43.612;1.568;2023-08-06T10:51:11;5.45;;;1.80;;
67902;SDS011;54708;43.612;1.568;2023-08-06T10:53:38;3.83;;;2.03;;
67902;SDS011;54708;43.612;1.568;2023-08-06T10:56:16;4.75;;;2.00;;
67902;SDS011;54708;43.612;1.568;2023-08-06T10:58:43;5.72;;;1.95;;
67902;SDS011;54708;43.612;1.568;2023-08-06T11:01:10;8.43;;;2.35;;
67902;SDS011;54708;43.612;1.568;2023-08-06T11:03:36;4.35;;;1.75;;
67902;SDS011;54708;43.612;1.568;2023-08-06T11:06:03;8.70;;;2.13;;
67902;SDS011;54708;43.612;1.568;2023-08-06T11:08:32;5.38;;;1.75;;
67902;SDS011;54708;43.612;1.568;2023-08-06T11:11:11;8.43;;;1.95;;
67902;SDS011;54708;43.612;1.568;2023-08-06T11:13:45;8.25;;;1.75;;
67902;SDS011;54708;43.612;1.568;2023-08-06T11:16:24;4.32;;;1.60;;
67902;SDS011;54708;43.612;1.568;2023-08-06T11:18:49;6.97;;;1.75;;
67902;SDS011;54708;43.612;1.568;2023-08-06T11:21:18;4.80;;;1.65;;
67902;SDS011;54708;43.612;1.568;2023-08-06T11:23:44;5.40;;;1.85;;
67902;SDS011;54708;43.612;1.568;2023-08-06T11:26:09;7.38;;;1.95;;
67902;SDS011;54708;43.612;1.568;2023-08-06T11:28:35;6.18;;;1.85;;
67902;SDS011;54708;43.612;1.568;2023-08-06T11:31:00;8.98;;;1.90;;
67902;SDS011;54708;43.612;1.568;2023-08-06T11:33:27;6.38;;;1.55;;
67902;SDS011;54708;43.612;1.568;2023-08-06T11:35:57;4.95;;;1.92;;
67902;SDS011;54708;43.612;1.568;2023-08-06T11:38:26;8.82;;;1.98;;
67902;SDS011;54708;43.612;1.568;2023-08-06T11:40:53;5.85;;;1.85;;
67902;SDS011;54708;43.612;1.568;2023-08-06T11:43:19;5.90;;;1.80;;
67902;SDS011;54708;43.612;1.568;2023-08-06T11:45:47;9.40;;;1.67;;
67902;SDS011;54708;43.612;1.568;2023-08-06T11:48:13;10.85;;;2.60;;
67902;SDS011;54708;43.612;1.568;2023-08-06T11:50:38;5.82;;;1.60;;
67902;SDS011;54708;43.612;1.568;2023-08-06T11:53:04;3.60;;;1.95;;
67902;SDS011;54708;43.612;1.568;2023-08-06T11:55:30;3.90;;;1.58;;
67902;SDS011;54708;43.612;1.568;2023-08-06T11:57:55;11.63;;;2.17;;
67902;SDS011;54708;43.612;1.568;2023-08-06T12:00:22;4.47;;;1.80;;
67902;SDS011;54708;43.612;1.568;2023-08-06T12:02:49;7.28;;;2.10;;
67902;SDS011;54708;43.612;1.568;2023-08-06T12:05:17;9.57;;;2.08;;
67902;SDS011;54708;43.612;1.568;2023-08-06T12:07:54;4.55;;;1.35;;
67902;SDS011;54708;43.612;1.568;2023-08-06T12:10:21;9.35;;;1.88;;
67902;SDS011;54708;43.612;1.568;2023-08-06T12:12:48;6.85;;;2.17;;
67902;SDS011;54708;43.612;1.568;2023-08-06T12:15:15;4.63;;;2.30;;
67902;SDS011;54708;43.612;1.568;2023-08-06T12:17:40;5.68;;;1.48;;
67902;SDS011;54708;43.612;1.568;2023-08-06T12:20:06;4.45;;;1.30;;
67902;SDS011;54708;43.612;1.568;2023-08-06T12:22:32;5.00;;;1.65;;
67902;SDS011;54708;43.612;1.568;2023-08-06T12:25:03;4.38;;;1.70;;
67902;SDS011;54708;43.612;1.568;2023-08-06T12:27:33;4.78;;;2.95;;
67902;SDS011;54708;43.612;1.568;2023-08-06T12:30:02;4.38;;;1.55;;
67902;SDS011;54708;43.612;1.568;2023-08-06T12:32:28;8.20;;;3.03;;
67902;SDS011;54708;43.612;1.568;2023-08-06T12:34:54;5.43;;;1.65;;
67902;SDS011;54708;43.612;1.568;2023-08-06T12:37:19;3.65;;;1.35;;
67902;SDS011;54708;43.612;1.568;2023-08-06T12:39:44;7.10;;;2.20;;
67902;SDS011;54708;43.612;1.568;2023-08-06T12:42:10;4.93;;;1.15;;
67902;SDS011;54708;43.612;1.568;2023-08-06T12:44:35;6.03;;;1.92;;
67902;SDS011;54708;43.612;1.568;2023-08-06T12:47:01;5.93;;;1.90;;
67902;SDS011;54708;43.612;1.568;2023-08-06T12:49:26;3.28;;;1.80;;
67902;SDS011;54708;43.612;1.568;2023-08-06T12:51:52;6.68;;;1.58;;
67902;SDS011;54708;43.612;1.568;2023-08-06T12:54:18;4.28;;;1.33;;
67902;SDS011;54708;43.612;1.568;2023-08-06T12:56:47;6.95;;;2.20;;
67902;SDS011;54708;43.612;1.568;2023-08-06T12:59:13;5.50;;;1.50;;
67902;SDS011;54708;43.612;1.568;2023-08-06T13:01:40;6.60;;;2.03;;
67902;SDS011;54708;43.612;1.568;2023-08-06T13:04:05;6.05;;;1.95;;
67902;SDS011;54708;43.612;1.568;2023-08-06T13:06:30;3.60;;;1.58;;
67902;SDS011;54708;43.612;1.568;2023-08-06T13:09:00;4.35;;;1.70;;
67902;SDS011;54708;43.612;1.568;2023-08-06T13:11:26;2.75;;;1.40;;
67902;SDS011;54708;43.612;1.568;2023-08-06T13:13:52;4.75;;;1.38;;
67902;SDS011;54708;43.612;1.568;2023-08-06T13:16:17;4.40;;;1.50;;
67902;SDS011;54708;43.612;1.568;2023-08-06T13:18:42;5.32;;;1.70;;
67902;SDS011;54708;43.612;1.568;2023-08-06T13:21:08;6.13;;;1.90;;
67902;SDS011;54708;43.612;1.568;2023-08-06T13:23:33;7.68;;;1.80;;
67902;SDS011;54708;43.612;1.568;2023-08-06T13:25:58;3.97;;;1.40;;
67902;SDS011;54708;43.612;1.568;2023-08-06T13:28:24;5.82;;;1.70;;
67902;SDS011;54708;43.612;1.568;2023-08-06T13:30:49;6.20;;;1.70;;
67902;SDS011;54708;43.612;1.568;2023-08-06T13:33:14;4.40;;;1.77;;
67902;SDS011;54708;43.612;1.568;2023-08-06T13:35:40;6.70;;;1.67;;
67902;SDS011;54708;43.612;1.568;2023-08-06T13:38:06;6.43;;;2.10;;
67902;SDS011;54708;43.612;1.568;2023-08-06T13:40:32;5.25;;;1.60;;
67902;SDS011;54708;43.612;1.568;2023-08-06T13:42:58;7.38;;;2.00;;
67902;SDS011;54708;43.612;1.568;2023-08-06T13:45:23;5.13;;;1.90;;
67902;SDS011;54708;43.612;1.568;2023-08-06T13:47:49;4.95;;;2.00;;
67902;SDS011;54708;43.612;1.568;2023-08-06T13:50:14;9.43;;;1.88;;
67902;SDS011;54708;43.612;1.568;2023-08-06T13:52:40;7.88;;;1.98;;
67902;SDS011;54708;43.612;1.568;2023-08-06T13:55:05;8.23;;;1.83;;
67902;SDS011;54708;43.612;1.568;2023-08-06T13:57:31;4.30;;;1.60;;
67902;SDS011;54708;43.612;1.568;2023-08-06T13:59:57;7.95;;;2.17;;
67902;SDS011;54708;43.612;1.568;2023-08-06T14:02:22;4.95;;;1.60;;
67902;SDS011;54708;43.612;1.568;2023-08-06T14:04:48;5.85;;;2.22;;
67902;SDS011;54708;43.612;1.568;2023-08-06T14:07:13;4.88;;;1.65;;
67902;SDS011;54708;43.612;1.568;2023-08-06T14:09:39;7.78;;;2.10;;
67902;SDS011;54708;43.612;1.568;2023-08-06T14:12:05;5.07;;;1.70;;
67902;SDS011;54708;43.612;1.568;2023-08-06T14:14:31;6.35;;;1.55;;
67902;SDS011;54708;43.612;1.568;2023-08-06T14:16:56;4.53;;;2.13;;
67902;SDS011;54708;43.612;1.568;2023-08-06T14:19:22;5.75;;;1.80;;
67902;SDS011;54708;43.612;1.568;2023-08-06T14:21:47;5.25;;;1.73;;
67902;SDS011;54708;43.612;1.568;2023-08-06T14:24:12;7.13;;;1.83;;
67902;SDS011;54708;43.612;1.568;2023-08-06T14:26:38;4.25;;;1.65;;
67902;SDS011;54708;43.612;1.568;2023-08-06T14:29:03;6.80;;;1.75;;
67902;SDS011;54708;43.612;1.568;2023-08-06T14:31:29;3.30;;;1.90;;
67902;SDS011;54708;43.612;1.568;2023-08-06T14:33:54;5.40;;;2.10;;
67902;SDS011;54708;43.612;1.568;2023-08-06T14:36:20;3.50;;;1.60;;
67902;SDS011;54708;43.612;1.568;2023-08-06T14:38:45;7.07;;;2.10;;
67902;SDS011;54708;43.612;1.568;2023-08-06T14:41:10;5.18;;;2.15;;
67902;SDS011;54708;43.612;1.568;2023-08-06T14:43:36;7.13;;;2.08;;
67902;SDS011;54708;43.612;1.568;2023-08-06T14:46:01;4.95;;;1.95;;